Rowlands Gill, United Kingdom
Current Conditions -  °F | °C
As of 6:50 PM on Tuesday 27 Jan 2015 (Local Time) from EGNT Reporting Station
Scattered Clouds Scattered Clouds  
Wind Chill: 35°   Ceiling: Unl
Heat Index: 43°   Visibility: 6mi
Dew Point: 37°   Wind: 15mph
Humidity: 81%   Direction: 250°WSW
Pressure: 29.97"   Gusts: NA
Location:  54.92°N, 1.74°W
Report Text: EGNT 271850Z 25013KT 9999 SCT015 06/03 Q1015
Loading
Personal Weather Stations






























Interactive Weather Map New forecast layout! Learn more

10-Day Weather Forecast

Advertisements
Track Severe Weather on mobile